sensor_id;sensor_type;location;lat;lon;timestamp;P1;durP1;ratioP1;P2;durP2;ratioP2
49175;SDS011;35012;47.200;9.748;2024-02-04T00:01:40;2.67;;;2.50;;
49175;SDS011;35012;47.200;9.748;2024-02-04T00:04:06;2.60;;;2.50;;
49175;SDS011;35012;47.200;9.748;2024-02-04T00:06:31;3.10;;;2.90;;
49175;SDS011;35012;47.200;9.748;2024-02-04T00:08:57;3.23;;;3.13;;
49175;SDS011;35012;47.200;9.748;2024-02-04T00:11:23;2.57;;;2.47;;
49175;SDS011;35012;47.200;9.748;2024-02-04T00:13:49;3.20;;;3.00;;
49175;SDS011;35012;47.200;9.748;2024-02-04T00:16:14;3.97;;;3.57;;
49175;SDS011;35012;47.200;9.748;2024-02-04T00:18:40;3.90;;;2.60;;
49175;SDS011;35012;47.200;9.748;2024-02-04T00:21:05;2.40;;;2.30;;
49175;SDS011;35012;47.200;9.748;2024-02-04T00:23:31;2.40;;;2.23;;
49175;SDS011;35012;47.200;9.748;2024-02-04T00:25:56;4.37;;;3.50;;
49175;SDS011;35012;47.200;9.748;2024-02-04T00:28:22;2.93;;;2.73;;
49175;SDS011;35012;47.200;9.748;2024-02-04T00:30:48;2.60;;;2.50;;
49175;SDS011;35012;47.200;9.748;2024-02-04T00:33:20;1.83;;;1.80;;
49175;SDS011;35012;47.200;9.748;2024-02-04T00:35:45;2.10;;;2.00;;
49175;SDS011;35012;47.200;9.748;2024-02-04T00:38:11;2.80;;;2.60;;
49175;SDS011;35012;47.200;9.748;2024-02-04T00:40:37;2.97;;;2.77;;
49175;SDS011;35012;47.200;9.748;2024-02-04T00:43:02;2.30;;;2.20;;
49175;SDS011;35012;47.200;9.748;2024-02-04T00:45:28;1.80;;;1.77;;
49175;SDS011;35012;47.200;9.748;2024-02-04T00:47:53;2.47;;;2.37;;
49175;SDS011;35012;47.200;9.748;2024-02-04T00:50:19;2.20;;;2.10;;
49175;SDS011;35012;47.200;9.748;2024-02-04T00:52:45;2.43;;;2.33;;
49175;SDS011;35012;47.200;9.748;2024-02-04T00:55:10;2.73;;;1.83;;
49175;SDS011;35012;47.200;9.748;2024-02-04T00:57:36;2.00;;;1.90;;
49175;SDS011;35012;47.200;9.748;2024-02-04T01:00:01;2.80;;;2.70;;
49175;SDS011;35012;47.200;9.748;2024-02-04T01:02:27;2.70;;;2.60;;
49175;SDS011;35012;47.200;9.748;2024-02-04T01:04:53;2.40;;;2.30;;
49175;SDS011;35012;47.200;9.748;2024-02-04T01:07:18;2.03;;;1.93;;
49175;SDS011;35012;47.200;9.748;2024-02-04T01:09:44;2.20;;;2.10;;
49175;SDS011;35012;47.200;9.748;2024-02-04T01:12:09;2.03;;;1.93;;
49175;SDS011;35012;47.200;9.748;2024-02-04T01:14:35;2.13;;;2.03;;
49175;SDS011;35012;47.200;9.748;2024-02-04T01:17:01;2.00;;;1.90;;
49175;SDS011;35012;47.200;9.748;2024-02-04T01:19:26;2.30;;;2.20;;
49175;SDS011;35012;47.200;9.748;2024-02-04T01:21:52;2.03;;;1.93;;
49175;SDS011;35012;47.200;9.748;2024-02-04T01:24:17;2.30;;;2.20;;
49175;SDS011;35012;47.200;9.748;2024-02-04T01:26:43;2.40;;;2.30;;
49175;SDS011;35012;47.200;9.748;2024-02-04T01:29:08;2.33;;;2.23;;
49175;SDS011;35012;47.200;9.748;2024-02-04T01:31:34;2.07;;;1.97;;
49175;SDS011;35012;47.200;9.748;2024-02-04T01:34:00;2.17;;;2.00;;
49175;SDS011;35012;47.200;9.748;2024-02-04T01:36:25;1.97;;;1.90;;
49175;SDS011;35012;47.200;9.748;2024-02-04T01:38:51;3.83;;;3.57;;
49175;SDS011;35012;47.200;9.748;2024-02-04T01:41:16;4.00;;;3.47;;
49175;SDS011;35012;47.200;9.748;2024-02-04T01:43:42;2.13;;;2.03;;
49175;SDS011;35012;47.200;9.748;2024-02-04T01:46:08;2.63;;;2.53;;
49175;SDS011;35012;47.200;9.748;2024-02-04T01:48:33;2.20;;;2.10;;
49175;SDS011;35012;47.200;9.748;2024-02-04T01:50:59;2.67;;;2.47;;
49175;SDS011;35012;47.200;9.748;2024-02-04T01:53:25;2.00;;;1.90;;
49175;SDS011;35012;47.200;9.748;2024-02-04T01:55:51;2.17;;;2.10;;
49175;SDS011;35012;47.200;9.748;2024-02-04T01:58:17;2.00;;;1.90;;
49175;SDS011;35012;47.200;9.748;2024-02-04T02:00:43;1.70;;;1.70;;
49175;SDS011;35012;47.200;9.748;2024-02-04T02:03:09;1.60;;;1.60;;
49175;SDS011;35012;47.200;9.748;2024-02-04T02:05:37;2.20;;;2.00;;
49175;SDS011;35012;47.200;9.748;2024-02-04T02:08:02;2.00;;;1.90;;
49175;SDS011;35012;47.200;9.748;2024-02-04T02:10:28;2.33;;;2.23;;
49175;SDS011;35012;47.200;9.748;2024-02-04T02:13:03;2.10;;;2.00;;
49175;SDS011;35012;47.200;9.748;2024-02-04T02:15:34;2.10;;;2.00;;
49175;SDS011;35012;47.200;9.748;2024-02-04T02:18:04;2.10;;;2.00;;
49175;SDS011;35012;47.200;9.748;2024-02-04T02:23:29;1.63;;;1.60;;
49175;SDS011;35012;47.200;9.748;2024-02-04T02:25:56;1.30;;;1.30;;
49175;SDS011;35012;47.200;9.748;2024-02-04T02:28:21;1.70;;;1.70;;
49175;SDS011;35012;47.200;9.748;2024-02-04T02:30:47;1.30;;;1.30;;
49175;SDS011;35012;47.200;9.748;2024-02-04T02:33:12;1.90;;;1.80;;
49175;SDS011;35012;47.200;9.748;2024-02-04T02:35:38;1.90;;;1.80;;
49175;SDS011;35012;47.200;9.748;2024-02-04T02:38:11;5.13;;;3.70;;
49175;SDS011;35012;47.200;9.748;2024-02-04T02:40:46;2.63;;;2.43;;
49175;SDS011;35012;47.200;9.748;2024-02-04T02:43:13;2.03;;;1.93;;
49175;SDS011;35012;47.200;9.748;2024-02-04T02:45:40;2.23;;;2.13;;
49175;SDS011;35012;47.200;9.748;2024-02-04T02:48:07;2.20;;;2.00;;
49175;SDS011;35012;47.200;9.748;2024-02-04T02:50:34;1.47;;;1.47;;
49175;SDS011;35012;47.200;9.748;2024-02-04T02:53:00;1.97;;;1.87;;
49175;SDS011;35012;47.200;9.748;2024-02-04T02:55:26;1.70;;;1.67;;
49175;SDS011;35012;47.200;9.748;2024-02-04T02:57:52;1.83;;;1.73;;
49175;SDS011;35012;47.200;9.748;2024-02-04T03:00:17;1.87;;;1.77;;
49175;SDS011;35012;47.200;9.748;2024-02-04T03:02:43;1.80;;;1.70;;
49175;SDS011;35012;47.200;9.748;2024-02-04T03:05:09;2.00;;;1.90;;
49175;SDS011;35012;47.200;9.748;2024-02-04T03:07:35;2.10;;;2.00;;
49175;SDS011;35012;47.200;9.748;2024-02-04T03:10:00;1.80;;;1.70;;
49175;SDS011;35012;47.200;9.748;2024-02-04T03:12:26;2.03;;;1.93;;
49175;SDS011;35012;47.200;9.748;2024-02-04T03:14:52;1.80;;;1.70;;
49175;SDS011;35012;47.200;9.748;2024-02-04T03:17:17;1.67;;;1.67;;
49175;SDS011;35012;47.200;9.748;2024-02-04T03:19:47;1.73;;;1.63;;
49175;SDS011;35012;47.200;9.748;2024-02-04T03:22:13;1.53;;;1.53;;
49175;SDS011;35012;47.200;9.748;2024-02-04T03:24:40;1.87;;;1.80;;
49175;SDS011;35012;47.200;9.748;2024-02-04T03:27:05;2.00;;;1.77;;
49175;SDS011;35012;47.200;9.748;2024-02-04T03:29:31;1.43;;;1.43;;
49175;SDS011;35012;47.200;9.748;2024-02-04T03:31:56;1.73;;;1.70;;
49175;SDS011;35012;47.200;9.748;2024-02-04T03:34:22;1.30;;;1.30;;
49175;SDS011;35012;47.200;9.748;2024-02-04T03:36:48;1.20;;;1.20;;
49175;SDS011;35012;47.200;9.748;2024-02-04T03:39:13;1.80;;;1.70;;
49175;SDS011;35012;47.200;9.748;2024-02-04T03:41:39;2.13;;;2.00;;
49175;SDS011;35012;47.200;9.748;2024-02-04T03:44:04;2.70;;;2.53;;
49175;SDS011;35012;47.200;9.748;2024-02-04T03:46:30;1.90;;;1.80;;
49175;SDS011;35012;47.200;9.748;2024-02-04T03:48:56;1.70;;;1.60;;
49175;SDS011;35012;47.200;9.748;2024-02-04T03:51:22;3.40;;;1.70;;
49175;SDS011;35012;47.200;9.748;2024-02-04T03:53:49;1.70;;;1.70;;
49175;SDS011;35012;47.200;9.748;2024-02-04T03:56:15;1.70;;;1.63;;
49175;SDS011;35012;47.200;9.748;2024-02-04T03:58:40;1.50;;;1.50;;
49175;SDS011;35012;47.200;9.748;2024-02-04T04:01:09;1.80;;;1.70;;
49175;SDS011;35012;47.200;9.748;2024-02-04T04:03:35;1.60;;;1.60;;
49175;SDS011;35012;47.200;9.748;2024-02-04T04:06:01;2.90;;;2.10;;
49175;SDS011;35012;47.200;9.748;2024-02-04T04:08:27;2.03;;;1.93;;
49175;SDS011;35012;47.200;9.748;2024-02-04T04:10:52;1.83;;;1.73;;
49175;SDS011;35012;47.200;9.748;2024-02-04T04:13:18;2.33;;;2.17;;
49175;SDS011;35012;47.200;9.748;2024-02-04T04:15:43;1.97;;;1.87;;
49175;SDS011;35012;47.200;9.748;2024-02-04T04:18:09;1.57;;;1.50;;
49175;SDS011;35012;47.200;9.748;2024-02-04T04:20:37;1.50;;;1.50;;
49175;SDS011;35012;47.200;9.748;2024-02-04T04:23:03;1.43;;;1.43;;
49175;SDS011;35012;47.200;9.748;2024-02-04T04:25:28;2.13;;;1.83;;
49175;SDS011;35012;47.200;9.748;2024-02-04T04:27:54;1.50;;;1.40;;
49175;SDS011;35012;47.200;9.748;2024-02-04T04:30:21;2.03;;;1.93;;
49175;SDS011;35012;47.200;9.748;2024-02-04T04:32:47;1.63;;;1.63;;
49175;SDS011;35012;47.200;9.748;2024-02-04T04:35:12;2.30;;;2.17;;
49175;SDS011;35012;47.200;9.748;2024-02-04T04:37:38;2.13;;;2.03;;
49175;SDS011;35012;47.200;9.748;2024-02-04T04:40:03;1.40;;;1.40;;
49175;SDS011;35012;47.200;9.748;2024-02-04T04:42:30;1.30;;;1.30;;
49175;SDS011;35012;47.200;9.748;2024-02-04T04:44:56;2.10;;;2.00;;
49175;SDS011;35012;47.200;9.748;2024-02-04T04:47:21;2.40;;;2.30;;
49175;SDS011;35012;47.200;9.748;2024-02-04T04:49:47;2.70;;;2.03;;
49175;SDS011;35012;47.200;9.748;2024-02-04T04:52:13;2.60;;;2.40;;
49175;SDS011;35012;47.200;9.748;2024-02-04T04:54:39;1.50;;;1.50;;
49175;SDS011;35012;47.200;9.748;2024-02-04T04:57:05;1.60;;;1.60;;
49175;SDS011;35012;47.200;9.748;2024-02-04T04:59:30;2.80;;;2.60;;
49175;SDS011;35012;47.200;9.748;2024-02-04T05:01:56;2.87;;;2.17;;
49175;SDS011;35012;47.200;9.748;2024-02-04T05:04:22;1.90;;;1.83;;
49175;SDS011;35012;47.200;9.748;2024-02-04T05:06:50;1.63;;;1.63;;
49175;SDS011;35012;47.200;9.748;2024-02-04T05:09:16;1.83;;;1.77;;
49175;SDS011;35012;47.200;9.748;2024-02-04T05:11:42;1.70;;;1.60;;
49175;SDS011;35012;47.200;9.748;2024-02-04T05:14:07;1.90;;;1.80;;
49175;SDS011;35012;47.200;9.748;2024-02-04T05:16:33;2.97;;;2.77;;
49175;SDS011;35012;47.200;9.748;2024-02-04T05:19:00;2.00;;;1.90;;
49175;SDS011;35012;47.200;9.748;2024-02-04T05:21:27;2.00;;;1.90;;
49175;SDS011;35012;47.200;9.748;2024-02-04T05:23:52;2.10;;;2.00;;
49175;SDS011;35012;47.200;9.748;2024-02-04T05:26:18;2.30;;;2.20;;
49175;SDS011;35012;47.200;9.748;2024-02-04T05:28:43;2.00;;;1.90;;
49175;SDS011;35012;47.200;9.748;2024-02-04T05:31:09;2.77;;;2.23;;
49175;SDS011;35012;47.200;9.748;2024-02-04T05:33:35;2.03;;;1.70;;
49175;SDS011;35012;47.200;9.748;2024-02-04T05:36:00;2.17;;;2.07;;
49175;SDS011;35012;47.200;9.748;2024-02-04T05:38:26;2.50;;;2.40;;
49175;SDS011;35012;47.200;9.748;2024-02-04T05:40:51;1.70;;;1.70;;
49175;SDS011;35012;47.200;9.748;2024-02-04T05:43:17;3.57;;;2.17;;
49175;SDS011;35012;47.200;9.748;2024-02-04T05:45:42;3.90;;;2.63;;
49175;SDS011;35012;47.200;9.748;2024-02-04T05:48:08;2.37;;;2.27;;
49175;SDS011;35012;47.200;9.748;2024-02-04T05:50:34;1.67;;;1.63;;
49175;SDS011;35012;47.200;9.748;2024-02-04T05:52:59;1.90;;;1.80;;
49175;SDS011;35012;47.200;9.748;2024-02-04T05:55:25;2.20;;;2.10;;
49175;SDS011;35012;47.200;9.748;2024-02-04T05:57:50;1.90;;;1.80;;
49175;SDS011;35012;47.200;9.748;2024-02-04T06:00:16;3.80;;;2.37;;
49175;SDS011;35012;47.200;9.748;2024-02-04T06:02:42;2.43;;;2.33;;
49175;SDS011;35012;47.200;9.748;2024-02-04T06:05:08;2.20;;;2.10;;
49175;SDS011;35012;47.200;9.748;2024-02-04T06:07:34;2.00;;;1.90;;
49175;SDS011;35012;47.200;9.748;2024-02-04T06:10:00;2.90;;;2.63;;
49175;SDS011;35012;47.200;9.748;2024-02-04T06:12:28;1.93;;;1.83;;
49175;SDS011;35012;47.200;9.748;2024-02-04T06:14:54;2.57;;;2.37;;
49175;SDS011;35012;47.200;9.748;2024-02-04T06:17:19;1.97;;;1.87;;
49175;SDS011;35012;47.200;9.748;2024-02-04T06:19:45;1.83;;;1.80;;
49175;SDS011;35012;47.200;9.748;2024-02-04T06:22:10;2.27;;;2.17;;
49175;SDS011;35012;47.200;9.748;2024-02-04T06:24:35;1.50;;;1.50;;
49175;SDS011;35012;47.200;9.748;2024-02-04T06:27:02;1.60;;;1.60;;
49175;SDS011;35012;47.200;9.748;2024-02-04T06:29:28;1.60;;;1.60;;
49175;SDS011;35012;47.200;9.748;2024-02-04T06:31:54;1.70;;;1.70;;
49175;SDS011;35012;47.200;9.748;2024-02-04T06:34:19;1.60;;;1.60;;
49175;SDS011;35012;47.200;9.748;2024-02-04T06:36:45;2.07;;;1.97;;
49175;SDS011;35012;47.200;9.748;2024-02-04T06:39:10;1.90;;;1.80;;
49175;SDS011;35012;47.200;9.748;2024-02-04T06:41:36;2.00;;;1.90;;
49175;SDS011;35012;47.200;9.748;2024-02-04T06:44:05;2.33;;;2.23;;
49175;SDS011;35012;47.200;9.748;2024-02-04T06:46:30;1.80;;;1.70;;
49175;SDS011;35012;47.200;9.748;2024-02-04T06:48:56;1.93;;;1.83;;
49175;SDS011;35012;47.200;9.748;2024-02-04T06:51:22;1.90;;;1.80;;
49175;SDS011;35012;47.200;9.748;2024-02-04T06:53:47;3.30;;;2.27;;
49175;SDS011;35012;47.200;9.748;2024-02-04T06:56:13;2.00;;;1.90;;
49175;SDS011;35012;47.200;9.748;2024-02-04T06:58:39;1.73;;;1.63;;
49175;SDS011;35012;47.200;9.748;2024-02-04T07:01:05;2.30;;;2.20;;
49175;SDS011;35012;47.200;9.748;2024-02-04T07:03:31;6.97;;;2.17;;
49175;SDS011;35012;47.200;9.748;2024-02-04T07:05:58;3.13;;;2.60;;
49175;SDS011;35012;47.200;9.748;2024-02-04T07:08:23;9.50;;;3.67;;
49175;SDS011;35012;47.200;9.748;2024-02-04T07:10:49;2.23;;;1.90;;
49175;SDS011;35012;47.200;9.748;2024-02-04T07:13:15;2.10;;;2.00;;
49175;SDS011;35012;47.200;9.748;2024-02-04T07:15:40;1.77;;;1.73;;
49175;SDS011;35012;47.200;9.748;2024-02-04T07:18:06;2.13;;;2.03;;
49175;SDS011;35012;47.200;9.748;2024-02-04T07:20:32;2.53;;;2.33;;
49175;SDS011;35012;47.200;9.748;2024-02-04T07:22:58;2.20;;;2.10;;
49175;SDS011;35012;47.200;9.748;2024-02-04T07:25:24;2.33;;;2.23;;
49175;SDS011;35012;47.200;9.748;2024-02-04T07:27:49;2.10;;;2.00;;
49175;SDS011;35012;47.200;9.748;2024-02-04T07:30:15;2.67;;;2.47;;
49175;SDS011;35012;47.200;9.748;2024-02-04T07:32:41;2.70;;;2.57;;
49175;SDS011;35012;47.200;9.748;2024-02-04T07:35:06;1.97;;;1.90;;
49175;SDS011;35012;47.200;9.748;2024-02-04T07:37:34;3.07;;;2.63;;
49175;SDS011;35012;47.200;9.748;2024-02-04T07:40:00;2.13;;;1.93;;
49175;SDS011;35012;47.200;9.748;2024-02-04T07:42:26;1.67;;;1.67;;
49175;SDS011;35012;47.200;9.748;2024-02-04T07:44:52;2.10;;;2.00;;
49175;SDS011;35012;47.200;9.748;2024-02-04T07:47:18;2.50;;;2.40;;
49175;SDS011;35012;47.200;9.748;2024-02-04T07:49:46;2.00;;;1.90;;
49175;SDS011;35012;47.200;9.748;2024-02-04T07:52:12;2.40;;;2.30;;
49175;SDS011;35012;47.200;9.748;2024-02-04T07:54:38;3.73;;;3.43;;
49175;SDS011;35012;47.200;9.748;2024-02-04T07:57:03;3.37;;;3.17;;
49175;SDS011;35012;47.200;9.748;2024-02-04T07:59:29;14.33;;;2.83;;
49175;SDS011;35012;47.200;9.748;2024-02-04T08:01:54;2.17;;;1.97;;
49175;SDS011;35012;47.200;9.748;2024-02-04T08:04:20;2.00;;;1.90;;
49175;SDS011;35012;47.200;9.748;2024-02-04T08:06:46;1.80;;;1.70;;
49175;SDS011;35012;47.200;9.748;2024-02-04T08:09:12;2.03;;;1.93;;
49175;SDS011;35012;47.200;9.748;2024-02-04T08:11:37;1.50;;;1.50;;
49175;SDS011;35012;47.200;9.748;2024-02-04T08:14:03;1.90;;;1.80;;
49175;SDS011;35012;47.200;9.748;2024-02-04T08:16:28;2.70;;;2.00;;
49175;SDS011;35012;47.200;9.748;2024-02-04T08:18:54;1.90;;;1.80;;
49175;SDS011;35012;47.200;9.748;2024-02-04T08:21:20;6.30;;;1.87;;
49175;SDS011;35012;47.200;9.748;2024-02-04T08:23:45;1.50;;;1.50;;
49175;SDS011;35012;47.200;9.748;2024-02-04T08:26:11;1.60;;;1.60;;
49175;SDS011;35012;47.200;9.748;2024-02-04T08:28:36;1.70;;;1.60;;
49175;SDS011;35012;47.200;9.748;2024-02-04T08:31:02;1.60;;;1.50;;
49175;SDS011;35012;47.200;9.748;2024-02-04T08:33:28;1.80;;;1.70;;
49175;SDS011;35012;47.200;9.748;2024-02-04T08:35:53;1.23;;;1.23;;
49175;SDS011;35012;47.200;9.748;2024-02-04T08:38:18;1.47;;;1.47;;
49175;SDS011;35012;47.200;9.748;2024-02-04T08:40:44;2.97;;;2.73;;
49175;SDS011;35012;47.200;9.748;2024-02-04T08:43:09;1.20;;;1.20;;
49175;SDS011;35012;47.200;9.748;2024-02-04T08:45:35;3.63;;;2.80;;
49175;SDS011;35012;47.200;9.748;2024-02-04T08:48:00;2.30;;;2.20;;
49175;SDS011;35012;47.200;9.748;2024-02-04T08:50:26;1.70;;;1.60;;
49175;SDS011;35012;47.200;9.748;2024-02-04T08:52:52;2.00;;;1.90;;
49175;SDS011;35012;47.200;9.748;2024-02-04T08:55:17;3.67;;;2.80;;
49175;SDS011;35012;47.200;9.748;2024-02-04T08:57:43;3.10;;;1.80;;
49175;SDS011;35012;47.200;9.748;2024-02-04T09:00:10;2.80;;;1.90;;
49175;SDS011;35012;47.200;9.748;2024-02-04T09:02:37;1.53;;;1.43;;
49175;SDS011;35012;47.200;9.748;2024-02-04T09:05:03;1.13;;;1.13;;
49175;SDS011;35012;47.200;9.748;2024-02-04T09:07:29;1.63;;;1.53;;
49175;SDS011;35012;47.200;9.748;2024-02-04T09:09:56;1.63;;;1.53;;
49175;SDS011;35012;47.200;9.748;2024-02-04T09:12:22;1.30;;;1.30;;
49175;SDS011;35012;47.200;9.748;2024-02-04T09:14:47;1.40;;;1.40;;
49175;SDS011;35012;47.200;9.748;2024-02-04T09:17:13;1.70;;;1.57;;
49175;SDS011;35012;47.200;9.748;2024-02-04T09:19:38;1.37;;;1.27;;
49175;SDS011;35012;47.200;9.748;2024-02-04T09:22:04;1.30;;;1.30;;
49175;SDS011;35012;47.200;9.748;2024-02-04T09:24:29;1.30;;;1.30;;
49175;SDS011;35012;47.200;9.748;2024-02-04T09:26:55;2.50;;;1.47;;
49175;SDS011;35012;47.200;9.748;2024-02-04T09:29:20;1.10;;;1.10;;
49175;SDS011;35012;47.200;9.748;2024-02-04T09:31:46;1.40;;;1.40;;
49175;SDS011;35012;47.200;9.748;2024-02-04T09:34:11;2.13;;;1.57;;
49175;SDS011;35012;47.200;9.748;2024-02-04T09:36:37;0.90;;;0.90;;
49175;SDS011;35012;47.200;9.748;2024-02-04T09:39:02;1.27;;;1.27;;
49175;SDS011;35012;47.200;9.748;2024-02-04T09:41:28;0.83;;;0.83;;
49175;SDS011;35012;47.200;9.748;2024-02-04T09:43:54;1.30;;;1.20;;
49175;SDS011;35012;47.200;9.748;2024-02-04T09:46:20;1.10;;;1.10;;
49175;SDS011;35012;47.200;9.748;2024-02-04T09:48:45;1.33;;;1.00;;
49175;SDS011;35012;47.200;9.748;2024-02-04T09:51:12;1.23;;;1.20;;
49175;SDS011;35012;47.200;9.748;2024-02-04T09:53:44;1.30;;;1.27;;
49175;SDS011;35012;47.200;9.748;2024-02-04T09:56:10;1.17;;;1.17;;
49175;SDS011;35012;47.200;9.748;2024-02-04T09:58:37;1.37;;;1.37;;
49175;SDS011;35012;47.200;9.748;2024-02-04T10:01:04;1.40;;;1.40;;
49175;SDS011;35012;47.200;9.748;2024-02-04T10:03:30;1.17;;;1.17;;
49175;SDS011;35012;47.200;9.748;2024-02-04T10:05:56;1.90;;;1.80;;
49175;SDS011;35012;47.200;9.748;2024-02-04T10:08:22;1.17;;;1.17;;
49175;SDS011;35012;47.200;9.748;2024-02-04T10:10:48;1.30;;;1.30;;
49175;SDS011;35012;47.200;9.748;2024-02-04T10:13:14;1.47;;;1.47;;
49175;SDS011;35012;47.200;9.748;2024-02-04T10:15:39;2.13;;;2.03;;
49175;SDS011;35012;47.200;9.748;2024-02-04T10:18:05;1.57;;;1.57;;
49175;SDS011;35012;47.200;9.748;2024-02-04T10:20:32;2.47;;;2.37;;
49175;SDS011;35012;47.200;9.748;2024-02-04T10:22:58;2.50;;;2.40;;
49175;SDS011;35012;47.200;9.748;2024-02-04T10:25:24;3.17;;;2.60;;
49175;SDS011;35012;47.200;9.748;2024-02-04T10:27:50;1.50;;;1.50;;
49175;SDS011;35012;47.200;9.748;2024-02-04T10:30:20;1.93;;;1.83;;
49175;SDS011;35012;47.200;9.748;2024-02-04T10:32:46;3.63;;;2.10;;
49175;SDS011;35012;47.200;9.748;2024-02-04T10:35:22;1.40;;;1.40;;
49175;SDS011;35012;47.200;9.748;2024-02-04T10:37:49;1.10;;;1.10;;
49175;SDS011;35012;47.200;9.748;2024-02-04T10:40:16;2.27;;;1.50;;
49175;SDS011;35012;47.200;9.748;2024-02-04T10:42:43;1.47;;;1.30;;
49175;SDS011;35012;47.200;9.748;2024-02-04T10:45:09;1.90;;;1.80;;
49175;SDS011;35012;47.200;9.748;2024-02-04T10:47:39;2.20;;;2.10;;
49175;SDS011;35012;47.200;9.748;2024-02-04T10:50:06;1.30;;;1.30;;
49175;SDS011;35012;47.200;9.748;2024-02-04T10:52:37;3.50;;;1.90;;
49175;SDS011;35012;47.200;9.748;2024-02-04T10:55:08;2.20;;;2.10;;
49175;SDS011;35012;47.200;9.748;2024-02-04T10:57:35;0.90;;;0.90;;
49175;SDS011;35012;47.200;9.748;2024-02-04T11:00:02;1.17;;;1.17;;
49175;SDS011;35012;47.200;9.748;2024-02-04T11:02:33;1.20;;;1.20;;
49175;SDS011;35012;47.200;9.748;2024-02-04T11:04:59;2.10;;;1.43;;
49175;SDS011;35012;47.200;9.748;2024-02-04T11:07:26;0.80;;;0.80;;
49175;SDS011;35012;47.200;9.748;2024-02-04T11:09:54;1.10;;;1.10;;
49175;SDS011;35012;47.200;9.748;2024-02-04T11:12:20;0.97;;;0.97;;
49175;SDS011;35012;47.200;9.748;2024-02-04T11:14:48;1.17;;;1.13;;
49175;SDS011;35012;47.200;9.748;2024-02-04T11:17:20;0.93;;;0.93;;
49175;SDS011;35012;47.200;9.748;2024-02-04T11:25:33;1.00;;;1.00;;
49175;SDS011;35012;47.200;9.748;2024-02-04T11:28:23;1.13;;;1.13;;
49175;SDS011;35012;47.200;9.748;2024-02-04T11:30:50;1.37;;;1.27;;
49175;SDS011;35012;47.200;9.748;2024-02-04T11:33:20;2.87;;;1.23;;
49175;SDS011;35012;47.200;9.748;2024-02-04T11:35:46;1.10;;;1.10;;
49175;SDS011;35012;47.200;9.748;2024-02-04T11:38:16;1.00;;;1.00;;
49175;SDS011;35012;47.200;9.748;2024-02-04T11:40:42;1.00;;;1.00;;
49175;SDS011;35012;47.200;9.748;2024-02-04T11:43:11;0.90;;;0.90;;
49175;SDS011;35012;47.200;9.748;2024-02-04T11:45:42;1.17;;;1.17;;
49175;SDS011;35012;47.200;9.748;2024-02-04T11:48:09;1.60;;;1.50;;
49175;SDS011;35012;47.200;9.748;2024-02-04T11:50:36;2.63;;;2.03;;
49175;SDS011;35012;47.200;9.748;2024-02-04T11:55:38;1.20;;;1.20;;
49175;SDS011;35012;47.200;9.748;2024-02-04T11:58:05;0.90;;;0.90;;
49175;SDS011;35012;47.200;9.748;2024-02-04T12:00:37;1.60;;;1.50;;
49175;SDS011;35012;47.200;9.748;2024-02-04T12:03:06;1.53;;;1.53;;
49175;SDS011;35012;47.200;9.748;2024-02-04T12:05:34;1.60;;;1.50;;
49175;SDS011;35012;47.200;9.748;2024-02-04T12:08:07;1.77;;;1.67;;
49175;SDS011;35012;47.200;9.748;2024-02-04T12:10:33;1.30;;;1.30;;
49175;SDS011;35012;47.200;9.748;2024-02-04T12:13:03;1.10;;;1.10;;
49175;SDS011;35012;47.200;9.748;2024-02-04T12:15:30;1.10;;;1.10;;
49175;SDS011;35012;47.200;9.748;2024-02-04T12:17:55;1.50;;;1.40;;
49175;SDS011;35012;47.200;9.748;2024-02-04T12:20:30;1.80;;;1.70;;
49175;SDS011;35012;47.200;9.748;2024-02-04T12:22:56;1.60;;;1.50;;
49175;SDS011;35012;47.200;9.748;2024-02-04T12:25:22;1.50;;;1.40;;
49175;SDS011;35012;47.200;9.748;2024-02-04T12:27:50;6.53;;;1.90;;
49175;SDS011;35012;47.200;9.748;2024-02-04T12:30:16;1.23;;;1.23;;
49175;SDS011;35012;47.200;9.748;2024-02-04T12:32:41;1.27;;;1.27;;
49175;SDS011;35012;47.200;9.748;2024-02-04T12:35:07;1.33;;;1.33;;
49175;SDS011;35012;47.200;9.748;2024-02-04T12:37:34;2.03;;;1.77;;
49175;SDS011;35012;47.200;9.748;2024-02-04T12:40:00;2.00;;;1.90;;
49175;SDS011;35012;47.200;9.748;2024-02-04T12:42:28;1.70;;;1.60;;
49175;SDS011;35012;47.200;9.748;2024-02-04T12:44:56;1.70;;;1.60;;
49175;SDS011;35012;47.200;9.748;2024-02-04T12:47:22;1.70;;;1.60;;
49175;SDS011;35012;47.200;9.748;2024-02-04T12:49:47;1.70;;;1.60;;
49175;SDS011;35012;47.200;9.748;2024-02-04T12:52:13;3.13;;;2.00;;
49175;SDS011;35012;47.200;9.748;2024-02-04T12:54:44;1.43;;;1.33;;
49175;SDS011;35012;47.200;9.748;2024-02-04T12:57:21;1.47;;;1.37;;
49175;SDS011;35012;47.200;9.748;2024-02-04T12:59:48;1.40;;;1.30;;
49175;SDS011;35012;47.200;9.748;2024-02-04T13:02:14;1.30;;;1.30;;
49175;SDS011;35012;47.200;9.748;2024-02-04T13:04:40;1.77;;;1.67;;
49175;SDS011;35012;47.200;9.748;2024-02-04T13:07:09;1.50;;;1.40;;
49175;SDS011;35012;47.200;9.748;2024-02-04T13:09:35;1.87;;;1.77;;
49175;SDS011;35012;47.200;9.748;2024-02-04T13:12:05;1.10;;;1.10;;
49175;SDS011;35012;47.200;9.748;2024-02-04T13:14:32;1.20;;;1.20;;
49175;SDS011;35012;47.200;9.748;2024-02-04T13:16:58;1.60;;;1.50;;
49175;SDS011;35012;47.200;9.748;2024-02-04T13:19:23;1.90;;;1.80;;
49175;SDS011;35012;47.200;9.748;2024-02-04T13:21:49;1.93;;;1.83;;
49175;SDS011;35012;47.200;9.748;2024-02-04T13:24:15;2.80;;;1.80;;
49175;SDS011;35012;47.200;9.748;2024-02-04T13:26:40;1.90;;;1.80;;
49175;SDS011;35012;47.200;9.748;2024-02-04T13:29:06;2.00;;;1.80;;
49175;SDS011;35012;47.200;9.748;2024-02-04T13:31:31;1.90;;;1.77;;
49175;SDS011;35012;47.200;9.748;2024-02-04T13:33:57;1.17;;;1.17;;
49175;SDS011;35012;47.200;9.748;2024-02-04T13:36:23;1.67;;;1.60;;
49175;SDS011;35012;47.200;9.748;2024-02-04T13:38:48;1.73;;;1.63;;
49175;SDS011;35012;47.200;9.748;2024-02-04T13:41:14;1.60;;;1.53;;
49175;SDS011;35012;47.200;9.748;2024-02-04T13:43:39;1.33;;;1.33;;
49175;SDS011;35012;47.200;9.748;2024-02-04T13:46:05;3.70;;;1.83;;
49175;SDS011;35012;47.200;9.748;2024-02-04T13:48:30;1.40;;;1.40;;
49175;SDS011;35012;47.200;9.748;2024-02-04T13:50:56;1.90;;;1.30;;
49175;SDS011;35012;47.200;9.748;2024-02-04T13:53:22;2.13;;;2.03;;
49175;SDS011;35012;47.200;9.748;2024-02-04T13:55:48;1.10;;;1.10;;
49175;SDS011;35012;47.200;9.748;2024-02-04T13:58:14;0.80;;;0.80;;
49175;SDS011;35012;47.200;9.748;2024-02-04T14:00:40;1.00;;;1.00;;
49175;SDS011;35012;47.200;9.748;2024-02-04T14:03:06;1.03;;;1.03;;
49175;SDS011;35012;47.200;9.748;2024-02-04T14:05:32;2.27;;;1.83;;
49175;SDS011;35012;47.200;9.748;2024-02-04T14:07:58;2.67;;;1.50;;
49175;SDS011;35012;47.200;9.748;2024-02-04T14:10:23;1.63;;;1.53;;
49175;SDS011;35012;47.200;9.748;2024-02-04T14:12:49;2.37;;;1.73;;
49175;SDS011;35012;47.200;9.748;2024-02-04T14:15:15;1.20;;;1.20;;
49175;SDS011;35012;47.200;9.748;2024-02-04T14:17:41;2.03;;;1.67;;
49175;SDS011;35012;47.200;9.748;2024-02-04T14:20:07;1.40;;;1.30;;
49175;SDS011;35012;47.200;9.748;2024-02-04T14:22:34;1.60;;;1.50;;
49175;SDS011;35012;47.200;9.748;2024-02-04T14:25:00;1.27;;;1.27;;
49175;SDS011;35012;47.200;9.748;2024-02-04T14:27:25;1.30;;;1.20;;
49175;SDS011;35012;47.200;9.748;2024-02-04T14:29:51;1.67;;;1.57;;
49175;SDS011;35012;47.200;9.748;2024-02-04T14:32:16;1.53;;;1.43;;
49175;SDS011;35012;47.200;9.748;2024-02-04T14:34:43;1.10;;;1.10;;
49175;SDS011;35012;47.200;9.748;2024-02-04T14:37:09;2.73;;;1.47;;
49175;SDS011;35012;47.200;9.748;2024-02-04T14:39:35;1.10;;;1.10;;
49175;SDS011;35012;47.200;9.748;2024-02-04T14:42:01;1.10;;;1.10;;
49175;SDS011;35012;47.200;9.748;2024-02-04T14:44:27;1.10;;;1.10;;
49175;SDS011;35012;47.200;9.748;2024-02-04T14:46:52;1.43;;;1.40;;
49175;SDS011;35012;47.200;9.748;2024-02-04T14:49:18;1.40;;;1.30;;
49175;SDS011;35012;47.200;9.748;2024-02-04T14:51:43;0.97;;;0.97;;
49175;SDS011;35012;47.200;9.748;2024-02-04T14:54:09;1.00;;;1.00;;